Time;durP1;ratioP1;P1;durP2;ratioP2;P2;SDS_P1;SDS_P2;PMS_P1;PMS_P2;Temp;Humidity;BMP_temperature;BMP_pressure;BME280_temperature;BME280_humidity;BME280_pressure;Samples;Min_cycle;Max_cycle;Signal;HPM_P1;HPM_P2
2023/08/19 00:01:08;;;;;;;0.60;0.60;;;;;20.60;96032.00;;;;5138272;27;20193;-60
2023/08/19 00:03:37;;;;;;;1.30;1.30;;;;;20.40;96037.00;;;;5137913;27;20189;-60
2023/08/19 00:06:09;;;;;;;1.08;1.08;;;;;20.40;96033.00;;;;5137907;27;20224;-61
2023/08/19 00:08:37;;;;;;;0.90;0.90;;;;;20.60;96031.00;;;;5136676;27;20184;-61
2023/08/19 00:11:04;;;;;;;1.58;1.48;;;;;20.60;96023.00;;;;5137982;27;20194;-60
2023/08/19 00:13:32;;;;;;;1.67;1.55;;;;;20.60;96025.00;;;;5137811;27;20181;-60
2023/08/19 00:16:00;;;;;;;0.90;0.90;;;;;20.60;96016.00;;;;5137699;27;20197;-60
2023/08/19 00:18:28;;;;;;;1.23;1.23;;;;;20.60;96022.00;;;;5137749;27;20220;-59
2023/08/19 00:20:55;;;;;;;1.00;1.00;;;;;20.50;96013.00;;;;5137685;27;20526;-61
2023/08/19 00:23:26;;;;;;;1.58;1.48;;;;;20.50;96019.00;;;;5137544;27;20247;-60
2023/08/19 00:25:53;;;;;;;2.13;1.92;;;;;20.50;96019.00;;;;5137742;27;20558;-60
2023/08/19 00:28:21;;;;;;;1.27;1.17;;;;;20.50;96029.00;;;;5137638;27;20632;-60
2023/08/19 00:30:48;;;;;;;1.92;1.20;;;;;20.50;96020.00;;;;5137394;27;20190;-60
2023/08/19 00:33:15;;;;;;;1.08;1.08;;;;;20.50;96020.00;;;;5137371;27;20189;-59
2023/08/19 00:35:43;;;;;;;1.95;1.23;;;;;20.50;96020.00;;;;5137905;27;20671;-59
2023/08/19 00:38:10;;;;;;;0.95;0.95;;;;;20.50;96026.00;;;;5137319;27;20182;-59
2023/08/19 00:40:39;;;;;;;1.23;1.13;;;;;20.40;96020.00;;;;5137195;27;20575;-59
2023/08/19 00:43:06;;;;;;;1.38;1.30;;;;;20.40;96013.00;;;;5137314;27;20218;-60
2023/08/19 00:45:34;;;;;;;0.98;0.98;;;;;20.50;96021.00;;;;5137171;27;20213;-59
2023/08/19 00:48:03;;;;;;;11.95;1.35;;;;;20.40;96021.00;;;;5137234;27;20198;-59
2023/08/19 00:50:30;;;;;;;0.93;0.93;;;;;20.40;96029.00;;;;5137392;27;20195;-59
2023/08/19 00:52:58;;;;;;;1.50;1.08;;;;;20.40;96028.00;;;;5137610;27;20193;-59
2023/08/19 00:55:25;;;;;;;1.23;1.23;;;;;20.40;96033.00;;;;5137209;27;20181;-59
2023/08/19 00:57:55;;;;;;;1.27;1.25;;;;;20.40;96029.00;;;;5135754;27;20223;-60
2023/08/19 01:00:23;;;;;;;1.30;1.20;;;;;20.40;96026.00;;;;5136627;27;20549;-60
2023/08/19 01:02:50;;;;;;;1.15;1.15;;;;;20.30;96026.00;;;;5137057;27;20190;-60
2023/08/19 01:05:18;;;;;;;1.42;1.42;;;;;20.30;96030.00;;;;5136191;27;20201;-60
2023/08/19 01:07:51;;;;;;;5.40;2.08;;;;;20.40;96025.00;;;;5136518;27;20213;-60
2023/08/19 01:10:23;;;;;;;2.03;1.80;;;;;20.30;96020.00;;;;5135313;27;20228;-60
2023/08/19 01:12:58;;;;;;;0.80;0.80;;;;;20.20;96023.00;;;;5136970;27;20204;-60
2023/08/19 01:15:30;;;;;;;1.77;1.67;;;;;20.20;96014.00;;;;5136516;27;20328;-59
2023/08/19 01:17:59;;;;;;;1.90;1.75;;;;;20.10;96018.00;;;;5136401;27;20581;-59
2023/08/19 01:20:31;;;;;;;0.90;0.90;;;;;20.00;96014.00;;;;5136634;27;20181;-60
2023/08/19 01:23:04;;;;;;;1.00;1.00;;;;;20.00;96023.00;;;;5136624;27;20186;-60
2023/08/19 01:25:33;;;;;;;0.95;0.95;;;;;20.00;96017.00;;;;5136573;27;20220;-60
2023/08/19 01:28:03;;;;;;;8.20;1.88;;;;;20.00;96006.00;;;;5136369;27;20186;-60
2023/08/19 01:30:33;;;;;;;0.70;0.70;;;;;19.90;96003.00;;;;5136495;27;20260;-60
2023/08/19 01:33:01;;;;;;;1.25;0.95;;;;;19.90;96005.00;;;;5136134;27;20272;-60
2023/08/19 01:35:31;;;;;;;1.67;1.57;;;;;19.90;96007.00;;;;5136150;27;20660;-60
2023/08/19 01:38:03;;;;;;;0.93;0.93;;;;;19.80;95999.00;;;;5136088;27;20220;-60
2023/08/19 01:40:34;;;;;;;1.33;1.10;;;;;19.80;95998.00;;;;5136032;27;20178;-60
2023/08/19 01:43:05;;;;;;;1.08;1.08;;;;;19.70;96004.00;;;;5136212;27;20253;-61
2023/08/19 01:45:33;;;;;;;0.93;0.93;;;;;19.80;96006.00;;;;5135917;27;20182;-60
2023/08/19 01:48:02;;;;;;;0.57;0.57;;;;;19.80;96006.00;;;;5135891;27;20201;-59
2023/08/19 01:50:29;;;;;;;1.00;0.95;;;;;19.80;96007.00;;;;5135798;27;20189;-59
2023/08/19 01:52:57;;;;;;;0.82;0.82;;;;;19.80;96009.00;;;;5135680;27;20649;-60
2023/08/19 01:55:24;;;;;;;0.90;0.90;;;;;19.80;96008.00;;;;5135790;27;20269;-59
2023/08/19 01:57:53;;;;;;;0.80;0.80;;;;;19.80;96009.00;;;;5135578;27;20618;-59
2023/08/19 02:00:20;;;;;;;0.80;0.70;;;;;19.70;96005.00;;;;5135519;27;20193;-59
2023/08/19 02:02:48;;;;;;;1.67;1.58;;;;;19.70;96006.00;;;;5136011;27;20192;-60
2023/08/19 02:05:15;;;;;;;1.23;1.20;;;;;19.60;96002.00;;;;5135440;27;20186;-59
2023/08/19 02:07:43;;;;;;;1.00;1.00;;;;;19.50;96013.00;;;;5135150;27;20216;-60
2023/08/19 02:10:12;;;;;;;0.80;0.80;;;;;19.50;96012.00;;;;5135484;27;20537;-60
2023/08/19 02:12:39;;;;;;;0.50;0.50;;;;;19.50;96008.00;;;;5135798;27;20182;-60
2023/08/19 02:15:10;;;;;;;1.27;1.27;;;;;19.40;96008.00;;;;5135287;27;20738;-60
2023/08/19 02:17:37;;;;;;;1.67;1.57;;;;;19.50;96010.00;;;;5135239;27;20222;-60
2023/08/19 02:20:05;;;;;;;1.08;1.08;;;;;19.40;96012.00;;;;5135333;27;20189;-60
2023/08/19 02:22:32;;;;;;;1.10;1.10;;;;;19.40;96005.00;;;;5135374;27;20246;-60
2023/08/19 02:25:00;;;;;;;1.87;1.70;;;;;19.50;96008.00;;;;5135118;27;20238;-60
2023/08/19 02:27:27;;;;;;;0.80;0.80;;;;;19.50;96005.00;;;;5135068;27;20225;-60
2023/08/19 02:29:55;;;;;;;1.27;1.27;;;;;19.40;96008.00;;;;5135067;27;20200;-59
2023/08/19 02:32:23;;;;;;;1.37;1.27;;;;;19.40;96000.00;;;;5134964;27;20189;-59
2023/08/19 02:34:51;;;;;;;1.77;1.30;;;;;19.30;96004.00;;;;5134997;27;20200;-61
2023/08/19 02:37:18;;;;;;;0.90;0.90;;;;;19.30;96003.00;;;;5134790;27;20205;-59
2023/08/19 02:39:45;;;;;;;1.70;1.60;;;;;19.20;96003.00;;;;5135323;27;20189;-59
2023/08/19 02:42:16;;;;;;;1.13;0.93;;;;;19.10;96003.00;;;;5135033;27;20190;-61
2023/08/19 02:44:43;;;;;;;1.17;1.17;;;;;19.10;96000.00;;;;5135093;27;20668;-59
2023/08/19 02:47:10;;;;;;;2.10;1.17;;;;;19.20;96009.00;;;;5134822;27;20650;-59
2023/08/19 02:49:39;;;;;;;1.45;1.35;;;;;19.30;96009.00;;;;5134720;27;20193;-60
2023/08/19 02:52:07;;;;;;;1.70;1.60;;;;;19.30;96010.00;;;;5134763;27;20186;-59
2023/08/19 02:54:35;;;;;;;1.13;1.13;;;;;19.40;96009.00;;;;5134691;27;20201;-59
2023/08/19 02:57:02;;;;;;;0.77;0.77;;;;;19.30;96018.00;;;;5134602;27;20216;-59
2023/08/19 02:59:30;;;;;;;1.00;1.00;;;;;19.30;96008.00;;;;5134546;27;20272;-60
2023/08/19 03:01:57;;;;;;;0.97;0.97;;;;;19.30;96012.00;;;;5134506;27;20193;-61
2023/08/19 03:04:25;;;;;;;1.73;1.30;;;;;19.30;96006.00;;;;5134309;27;20208;-60
2023/08/19 03:06:53;;;;;;;1.43;1.30;;;;;19.30;96003.00;;;;5134844;27;20765;-60
2023/08/19 03:09:21;;;;;;;0.93;0.93;;;;;19.10;96005.00;;;;5134705;27;20192;-60
2023/08/19 03:11:49;;;;;;;1.20;1.10;;;;;19.10;96005.00;;;;5134372;27;20555;-60
2023/08/19 03:14:17;;;;;;;0.93;0.93;;;;;18.90;96007.00;;;;5133009;27;20193;-60
2023/08/19 03:16:44;;;;;;;1.80;1.37;;;;;18.90;96007.00;;;;5134410;27;20216;-61
2023/08/19 03:19:14;;;;;;;0.77;0.77;;;;;18.90;96008.00;;;;5134208;27;20656;-60
2023/08/19 03:21:41;;;;;;;0.80;0.80;;;;;18.90;96008.00;;;;5134215;27;20193;-61
2023/08/19 03:24:10;;;;;;;1.17;1.17;;;;;19.00;96007.00;;;;5134354;27;20197;-61
2023/08/19 03:26:38;;;;;;;1.20;1.17;;;;;19.00;96008.00;;;;5134337;27;20220;-61
2023/08/19 03:29:05;;;;;;;0.93;0.93;;;;;19.00;96008.00;;;;5134430;28;20185;-61
2023/08/19 03:31:33;;;;;;;0.50;0.50;;;;;19.10;96009.00;;;;5134231;28;20201;-61
2023/08/19 03:34:00;;;;;;;1.10;1.10;;;;;18.90;96002.00;;;;5134157;28;20193;-60
2023/08/19 03:36:28;;;;;;;1.03;1.03;;;;;18.90;96008.00;;;;5134258;28;20540;-60
2023/08/19 03:38:56;;;;;;;0.80;0.80;;;;;18.80;96011.00;;;;5134007;28;20189;-60
2023/08/19 03:41:24;;;;;;;1.35;1.05;;;;;18.70;96011.00;;;;5134257;28;20204;-60
2023/08/19 03:43:52;;;;;;;1.50;0.97;;;;;18.70;96008.00;;;;5134047;28;20198;-60
2023/08/19 03:46:19;;;;;;;1.13;1.13;;;;;18.70;96016.00;;;;5133908;28;20217;-60
2023/08/19 03:48:47;;;;;;;1.03;1.03;;;;;18.70;96015.00;;;;5133953;28;20193;-60
2023/08/19 03:51:14;;;;;;;0.83;0.83;;;;;18.70;96010.00;;;;5133940;28;20185;-60
2023/08/19 03:53:41;;;;;;;1.73;1.63;;;;;18.70;96005.00;;;;5133993;28;20186;-60
2023/08/19 03:56:09;;;;;;;1.07;1.07;;;;;18.70;96004.00;;;;5133921;28;20216;-60
2023/08/19 03:58:38;;;;;;;0.70;0.70;;;;;18.70;96011.00;;;;5133892;28;20191;-61
2023/08/19 04:01:06;;;;;;;1.20;1.10;;;;;18.60;96002.00;;;;5133978;28;20206;-60
2023/08/19 04:03:34;;;;;;;0.90;0.90;;;;;18.60;96006.00;;;;5133709;28;20216;-60
2023/08/19 04:06:01;;;;;;;1.77;1.67;;;;;18.50;96016.00;;;;5133616;28;20249;-61
2023/08/19 04:08:29;;;;;;;0.90;0.90;;;;;18.50;96016.00;;;;5133651;28;20250;-60
2023/08/19 04:11:03;;;;;;;0.80;0.80;;;;;18.40;95987.00;;;;5133948;28;20519;-60
2023/08/19 04:13:30;;;;;;;1.33;1.23;;;;;18.40;96015.00;;;;5133967;28;20178;-61
2023/08/19 04:16:03;;;;;;;0.90;0.90;;;;;18.40;96007.00;;;;5133708;28;20262;-61
2023/08/19 04:18:31;;;;;;;1.73;1.67;;;;;18.50;96017.00;;;;5133984;28;20484;-60
2023/08/19 04:21:02;;;;;;;0.80;0.80;;;;;18.50;96007.00;;;;5133983;28;20185;-60
2023/08/19 04:23:29;;;;;;;1.00;1.00;;;;;18.50;96013.00;;;;5132337;28;20254;-60
2023/08/19 04:25:57;;;;;;;1.10;1.10;;;;;18.30;96005.00;;;;5133525;28;20209;-60
2023/08/19 04:28:25;;;;;;;0.97;0.97;;;;;18.10;96008.00;;;;5133488;28;20209;-60
2023/08/19 04:31:01;;;;;;;1.10;1.10;;;;;18.10;96010.00;;;;5132164;28;20564;-60
2023/08/19 04:33:30;;;;;;;1.00;1.00;;;;;18.10;96019.00;;;;5137178;27;20205;-60
2023/08/19 04:35:58;;;;;;;4.23;1.50;;;;;18.10;96015.00;;;;5137222;27;20212;-61
2023/08/19 04:38:26;;;;;;;1.67;1.53;;;;;18.20;96015.00;;;;5137275;27;20216;-61
2023/08/19 04:40:53;;;;;;;1.57;1.47;;;;;18.30;96014.00;;;;5135993;27;20261;-61
2023/08/19 04:43:24;;;;;;;0.70;0.70;;;;;18.30;96015.00;;;;5137128;27;20204;-61
2023/08/19 04:45:53;;;;;;;1.10;1.10;;;;;18.30;96021.00;;;;5135719;27;20558;-60
2023/08/19 04:48:21;;;;;;;2.37;1.93;;;;;18.40;96020.00;;;;5136917;27;20270;-61
2023/08/19 04:50:50;;;;;;;3.00;1.03;;;;;18.50;96021.00;;;;5137470;27;20193;-61
2023/08/19 04:53:17;;;;;;;1.47;1.37;;;;;18.50;96024.00;;;;5137148;27;20193;-61
2023/08/19 04:55:45;;;;;;;3.10;1.77;;;;;18.50;96017.00;;;;5136918;27;20189;-61
2023/08/19 04:58:12;;;;;;;0.90;0.90;;;;;18.40;96027.00;;;;5136805;27;20192;-61
2023/08/19 05:00:39;;;;;;;0.70;0.70;;;;;18.40;96022.00;;;;5136755;27;20268;-62
2023/08/19 05:03:07;;;;;;;1.20;1.20;;;;;18.40;96023.00;;;;5136943;27;20541;-61
2023/08/19 05:05:34;;;;;;;2.10;2.00;;;;;18.30;96013.00;;;;5136511;27;20189;-60
2023/08/19 05:08:04;;;;;;;1.53;1.43;;;;;18.50;96028.00;;;;5136843;27;20258;-61
2023/08/19 05:10:31;;;;;;;0.80;0.80;;;;;18.70;96026.00;;;;5136535;27;20656;-61
2023/08/19 05:12:59;;;;;;;1.37;1.33;;;;;18.70;96023.00;;;;5136495;27;20185;-59
2023/08/19 05:15:26;;;;;;;1.00;1.00;;;;;18.70;96035.00;;;;5136497;27;20245;-61
2023/08/19 05:17:53;;;;;;;1.23;1.20;;;;;18.80;96033.00;;;;5136296;27;20212;-61
2023/08/19 05:20:21;;;;;;;0.87;0.87;;;;;18.80;96033.00;;;;5136596;27;20198;-61
2023/08/19 05:22:48;;;;;;;1.30;1.30;;;;;18.60;96038.00;;;;5136573;27;20197;-61
2023/08/19 05:25:17;;;;;;;3.07;2.03;;;;;18.60;96028.00;;;;5135064;27;20200;-61
2023/08/19 05:27:45;;;;;;;1.07;1.03;;;;;18.80;96030.00;;;;5135988;27;20221;-59
2023/08/19 05:30:13;;;;;;;1.50;1.30;;;;;18.90;96031.00;;;;5136287;27;20216;-59
2023/08/19 05:32:41;;;;;;;0.93;0.93;;;;;18.90;96035.00;;;;5136562;27;20537;-59
2023/08/19 05:35:09;;;;;;;2.15;1.67;;;;;18.90;96038.00;;;;5136284;27;20212;-59
2023/08/19 05:37:36;;;;;;;1.53;1.47;;;;;18.90;96042.00;;;;5135914;27;20583;-59
2023/08/19 05:40:07;;;;;;;1.63;1.53;;;;;19.00;96035.00;;;;5136273;27;20194;-61
2023/08/19 05:42:36;;;;;;;1.40;1.33;;;;;19.00;96035.00;;;;5136339;27;20181;-60
2023/08/19 05:45:04;;;;;;;2.43;1.93;;;;;19.10;96031.00;;;;5135589;27;20193;-60
2023/08/19 05:47:31;;;;;;;0.97;0.97;;;;;19.20;96043.00;;;;5135838;27;20221;-61
2023/08/19 05:49:59;;;;;;;1.03;1.03;;;;;19.20;96041.00;;;;5136086;27;20258;-60
2023/08/19 05:52:26;;;;;;;1.37;1.33;;;;;19.30;96046.00;;;;5136241;27;20185;-60
2023/08/19 05:54:53;;;;;;;1.13;1.13;;;;;19.40;96049.00;;;;5134503;27;20249;-60
2023/08/19 05:57:21;;;;;;;0.60;0.60;;;;;19.30;96058.00;;;;5135784;27;20209;-60
2023/08/19 05:59:49;;;;;;;0.80;0.80;;;;;19.30;96060.00;;;;5135818;27;20189;-60
2023/08/19 06:02:17;;;;;;;2.87;1.40;;;;;19.30;96062.00;;;;5135793;27;20190;-60
2023/08/19 06:04:44;;;;;;;1.20;1.20;;;;;19.40;96062.00;;;;5135384;27;20205;-60
2023/08/19 06:07:12;;;;;;;1.17;1.17;;;;;19.50;96062.00;;;;5135364;27;20305;-60
2023/08/19 06:09:40;;;;;;;0.70;0.70;;;;;19.60;96065.00;;;;5135748;27;20193;-60
2023/08/19 06:12:08;;;;;;;5.57;1.90;;;;;19.60;96066.00;;;;5135679;27;20208;-60
2023/08/19 06:14:35;;;;;;;1.00;1.00;;;;;19.70;96057.00;;;;5135361;27;20185;-60
2023/08/19 06:17:04;;;;;;;1.00;1.00;;;;;19.80;96068.00;;;;5135529;27;20676;-60
2023/08/19 06:19:32;;;;;;;1.50;1.40;;;;;19.90;96070.00;;;;5134211;27;20198;-60
2023/08/19 06:21:59;;;;;;;1.77;1.67;;;;;20.10;96067.00;;;;5135205;27;20529;-60
2023/08/19 06:24:27;;;;;;;0.90;0.90;;;;;20.20;96057.00;;;;5135138;27;20193;-60
2023/08/19 06:26:55;;;;;;;1.60;1.50;;;;;20.30;96057.00;;;;5135016;27;20205;-61
2023/08/19 06:29:22;;;;;;;1.70;1.60;;;;;20.30;96060.00;;;;5134932;27;20185;-60
2023/08/19 06:31:50;;;;;;;0.50;0.50;;;;;20.30;96050.00;;;;5135058;27;20189;-60
2023/08/19 06:34:19;;;;;;;1.25;1.25;;;;;20.50;96060.00;;;;5134811;27;20194;-60
2023/08/19 06:36:49;;;;;;;0.65;0.65;;;;;20.50;96063.00;;;;5134929;27;20204;-60
2023/08/19 06:39:24;;;;;;;0.98;0.98;;;;;20.50;96065.00;;;;5135144;27;20201;-60
2023/08/19 06:41:57;;;;;;;10.35;1.60;;;;;20.80;96070.00;;;;5135003;27;20189;-60
2023/08/19 06:44:26;;;;;;;1.80;1.27;;;;;20.80;96076.00;;;;5134760;27;20188;-60
2023/08/19 06:46:56;;;;;;;1.27;1.17;;;;;20.90;96063.00;;;;5134753;27;20213;-60
2023/08/19 06:49:26;;;;;;;1.77;1.67;;;;;20.90;96068.00;;;;5135269;27;20200;-60
2023/08/19 06:51:54;;;;;;;1.92;1.73;;;;;21.00;96080.00;;;;5134913;27;20624;-60
2023/08/19 06:54:22;;;;;;;2.40;1.13;;;;;21.10;96079.00;;;;5134820;27;20189;-60
2023/08/19 06:56:56;;;;;;;3.58;2.22;;;;;21.30;96078.00;;;;5133441;27;20209;-60
2023/08/19 06:59:30;;;;;;;2.10;1.90;;;;;21.50;96085.00;;;;5134383;27;20268;-60
2023/08/19 07:02:00;;;;;;;0.75;0.75;;;;;21.70;96085.00;;;;5134522;27;20247;-60
2023/08/19 07:04:30;;;;;;;1.15;1.15;;;;;21.70;96085.00;;;;5134409;27;20200;-60
2023/08/19 07:06:59;;;;;;;1.27;1.27;;;;;21.90;96091.00;;;;5134506;27;20213;-60
2023/08/19 07:09:28;;;;;;;1.10;1.10;;;;;22.00;96088.00;;;;5134545;27;20212;-60
2023/08/19 07:11:57;;;;;;;1.20;1.20;;;;;22.30;96091.00;;;;5134597;27;20189;-60
2023/08/19 07:14:26;;;;;;;1.17;1.13;;;;;22.50;96085.00;;;;5134460;27;20192;-60
2023/08/19 07:16:55;;;;;;;1.30;1.25;;;;;22.60;96081.00;;;;5134277;27;20289;-60
2023/08/19 07:19:26;;;;;;;0.88;0.88;;;;;22.80;96086.00;;;;5134244;27;20563;-60
2023/08/19 07:21:57;;;;;;;1.00;1.00;;;;;22.90;96098.00;;;;5134374;27;20625;-60
2023/08/19 07:24:26;;;;;;;3.40;1.52;;;;;23.10;96085.00;;;;5132884;27;20189;-61
2023/08/19 07:26:53;;;;;;;0.93;0.93;;;;;23.30;96095.00;;;;5133910;27;20582;-61
2023/08/19 07:29:21;;;;;;;1.65;1.05;;;;;23.50;96096.00;;;;5134070;27;20209;-60
2023/08/19 07:31:49;;;;;;;1.33;1.33;;;;;23.70;96096.00;;;;5134392;28;20189;-60
2023/08/19 07:34:17;;;;;;;1.33;1.25;;;;;23.80;96107.00;;;;5133963;28;20189;-61
2023/08/19 07:36:45;;;;;;;1.20;1.20;;;;;23.70;96107.00;;;;5133689;28;20698;-60
2023/08/19 07:39:14;;;;;;;0.90;0.90;;;;;23.80;96103.00;;;;5134052;28;20186;-60
2023/08/19 07:41:42;;;;;;;1.55;1.45;;;;;23.80;96099.00;;;;5132582;28;20243;-60
2023/08/19 07:44:09;;;;;;;0.60;0.60;;;;;23.90;96101.00;;;;5133830;28;20636;-60
2023/08/19 07:46:36;;;;;;;0.95;0.95;;;;;24.20;96099.00;;;;5133722;28;20216;-60
2023/08/19 07:49:04;;;;;;;1.02;1.02;;;;;24.40;96093.00;;;;5134716;28;20217;-60
2023/08/19 07:51:32;;;;;;;0.95;0.95;;;;;24.50;96097.00;;;;5134036;28;20220;-60
2023/08/19 07:53:59;;;;;;;1.25;1.15;;;;;24.70;96104.00;;;;5133691;28;20717;-60
2023/08/19 07:56:28;;;;;;;1.23;1.17;;;;;24.80;96110.00;;;;5133977;28;20217;-60
2023/08/19 07:58:55;;;;;;;2.22;1.38;;;;;24.80;96113.00;;;;5133985;28;20196;-60
2023/08/19 08:01:23;;;;;;;0.65;0.65;;;;;24.90;96112.00;;;;5133693;28;20253;-60
2023/08/19 08:03:50;;;;;;;1.60;1.50;;;;;25.00;96108.00;;;;5133606;28;20208;-60
2023/08/19 08:06:18;;;;;;;1.33;1.23;;;;;25.00;96114.00;;;;5132609;27;20210;-61
2023/08/19 08:08:45;;;;;;;0.90;0.88;;;;;25.20;96102.00;;;;5138039;27;20213;-60
2023/08/19 08:11:12;;;;;;;0.93;0.93;;;;;25.20;96111.00;;;;5138310;27;20664;-60
2023/08/19 08:13:41;;;;;;;1.20;1.20;;;;;25.30;96111.00;;;;5137812;27;20193;-60
2023/08/19 08:16:08;;;;;;;1.95;1.20;;;;;25.50;96110.00;;;;5137990;27;20205;-60
2023/08/19 08:18:36;;;;;;;1.48;1.30;;;;;25.60;96113.00;;;;5137686;27;20605;-60
2023/08/19 08:21:03;;;;;;;1.60;1.50;;;;;25.70;96111.00;;;;5137568;27;20194;-60
2023/08/19 08:23:31;;;;;;;1.35;1.25;;;;;25.70;96113.00;;;;5137614;27;20550;-61
2023/08/19 08:25:58;;;;;;;0.77;0.77;;;;;25.80;96114.00;;;;5137570;27;20633;-60
2023/08/19 08:28:27;;;;;;;1.60;0.90;;;;;25.80;96109.00;;;;5137275;27;20216;-60
2023/08/19 08:30:56;;;;;;;1.15;1.15;;;;;25.90;96115.00;;;;5137527;27;20193;-60
2023/08/19 08:33:23;;;;;;;1.10;0.98;;;;;26.10;96109.00;;;;5137536;27;20625;-60
2023/08/19 08:35:51;;;;;;;1.20;1.20;;;;;26.20;96110.00;;;;5137138;27;20208;-60
2023/08/19 08:38:18;;;;;;;4.10;1.02;;;;;26.30;96110.00;;;;5137681;27;20186;-60
2023/08/19 08:40:46;;;;;;;1.05;1.05;;;;;26.50;96109.00;;;;5138101;27;20557;-59
2023/08/19 08:43:14;;;;;;;1.17;1.17;;;;;26.60;96114.00;;;;5137313;27;20190;-60
2023/08/19 08:45:43;;;;;;;1.08;0.93;;;;;26.60;96116.00;;;;5137241;27;20201;-60
2023/08/19 08:48:12;;;;;;;1.60;1.38;;;;;26.80;96115.00;;;;5137007;27;20282;-60
2023/08/19 08:50:40;;;;;;;1.38;1.27;;;;;26.80;96113.00;;;;5137598;27;20194;-60
2023/08/19 08:53:08;;;;;;;0.93;0.93;;;;;26.90;96116.00;;;;5137034;27;20554;-60
2023/08/19 08:55:36;;;;;;;1.63;1.38;;;;;27.00;96115.00;;;;5136887;27;20196;-60
2023/08/19 08:58:04;;;;;;;0.98;0.98;;;;;27.00;96111.00;;;;5136872;27;20189;-60
2023/08/19 09:00:32;;;;;;;0.73;0.73;;;;;27.30;96114.00;;;;5136880;27;20189;-61
2023/08/19 09:03:01;;;;;;;1.77;1.67;;;;;27.40;96117.00;;;;5136950;27;20190;-60
2023/08/19 09:05:31;;;;;;;1.00;1.00;;;;;27.60;96123.00;;;;5136823;27;20197;-60
2023/08/19 09:08:01;;;;;;;1.27;1.17;;;;;27.70;96117.00;;;;5136459;27;20216;-60
2023/08/19 09:10:31;;;;;;;0.95;0.95;;;;;27.80;96119.00;;;;5137129;27;20181;-60
2023/08/19 09:13:00;;;;;;;1.92;1.80;;;;;28.00;96121.00;;;;5136551;27;20187;-60
2023/08/19 09:15:29;;;;;;;4.80;1.60;;;;;28.10;96124.00;;;;5136483;27;20679;-60
2023/08/19 09:17:58;;;;;;;1.55;1.20;;;;;28.20;96121.00;;;;5135784;27;20256;-60
2023/08/19 09:20:26;;;;;;;0.95;0.95;;;;;28.10;96128.00;;;;5135943;27;20189;-61
2023/08/19 09:23:07;;;;;;;1.35;1.25;;;;;28.50;96126.00;;;;5136457;27;20189;-63
2023/08/19 09:25:36;;;;;;;1.02;1.02;;;;;28.70;96128.00;;;;5136408;27;20177;-60
2023/08/19 09:28:03;;;;;;;1.80;1.25;;;;;28.90;96134.00;;;;5136298;27;20202;-59
2023/08/19 09:30:35;;;;;;;1.20;1.20;;;;;29.20;96140.00;;;;5136179;27;20190;-59
2023/08/19 09:33:03;;;;;;;0.80;0.80;;;;;29.40;96132.00;;;;5136190;27;20197;-60
2023/08/19 09:35:36;;;;;;;1.98;1.52;;;;;29.40;96136.00;;;;5136045;27;20194;-59
2023/08/19 09:38:05;;;;;;;1.23;1.17;;;;;29.60;96135.00;;;;5136529;27;20217;-59
2023/08/19 09:40:33;;;;;;;0.90;0.90;;;;;29.70;96120.00;;;;5136267;27;20589;-59
2023/08/19 09:43:00;;;;;;;1.98;1.83;;;;;29.90;96126.00;;;;5135943;27;20245;-59
2023/08/19 09:45:29;;;;;;;1.35;1.25;;;;;30.00;96124.00;;;;5135796;27;20712;-59
2023/08/19 09:47:56;;;;;;;1.48;1.38;;;;;30.20;96125.00;;;;5135673;27;20214;-59
2023/08/19 09:50:27;;;;;;;1.23;1.13;;;;;30.40;96132.00;;;;5135664;27;20193;-58
2023/08/19 09:52:55;;;;;;;1.58;1.48;;;;;30.50;96127.00;;;;5135949;27;20178;-59
2023/08/19 09:55:25;;;;;;;1.10;1.10;;;;;30.20;96130.00;;;;5135619;27;20189;-59
2023/08/19 09:57:52;;;;;;;1.13;1.13;;;;;30.50;96125.00;;;;5135596;27;20213;-59
2023/08/19 10:00:20;;;;;;;2.17;1.98;;;;;31.00;96128.00;;;;5135788;27;20186;-60
2023/08/19 10:02:48;;;;;;;1.23;1.23;;;;;30.90;96125.00;;;;5135438;27;20193;-60
2023/08/19 10:05:17;;;;;;;1.05;1.05;;;;;31.20;96122.00;;;;5135443;27;20204;-60
2023/08/19 10:07:50;;;;;;;1.30;1.27;;;;;31.30;96122.00;;;;5135492;27;20704;-61
2023/08/19 10:10:19;;;;;;;1.48;1.38;;;;;31.30;96133.00;;;;5135739;27;20197;-60
2023/08/19 10:12:51;;;;;;;2.22;1.33;;;;;31.10;96136.00;;;;5135300;27;20193;-61
2023/08/19 10:15:21;;;;;;;6.68;1.92;;;;;30.90;96136.00;;;;5135374;27;20186;-60
2023/08/19 10:17:51;;;;;;;1.35;1.33;;;;;30.70;96139.00;;;;5135280;27;20688;-60
2023/08/19 10:20:22;;;;;;;5.82;1.67;;;;;30.70;96140.00;;;;5135088;27;20181;-60
2023/08/19 10:22:53;;;;;;;1.10;1.10;;;;;30.60;96136.00;;;;5136301;27;20205;-60
2023/08/19 10:25:22;;;;;;;1.08;1.08;;;;;30.80;96139.00;;;;5135922;27;20558;-60
2023/08/19 10:27:50;;;;;;;1.15;1.10;;;;;31.30;96140.00;;;;5134804;27;20544;-60
2023/08/19 10:30:31;;;;;;;1.23;1.23;;;;;31.40;96131.00;;;;5134756;27;20623;-60
2023/08/19 10:33:07;;;;;;;1.25;1.15;;;;;31.40;96131.00;;;;5134954;27;20200;-60
2023/08/19 10:36:05;;;;;;;1.35;1.25;;;;;31.80;96127.00;;;;5135207;27;20177;-60
2023/08/19 10:38:45;;;;;;;2.33;1.88;;;;;31.80;96130.00;;;;5051578;28;20184;-60
2023/08/19 10:41:24;;;;;;;1.33;1.23;;;;;31.80;96128.00;;;;5124305;27;20669;-60
2023/08/19 10:44:00;;;;;;;1.35;1.25;;;;;32.20;96119.00;;;;5135256;27;20177;-60
2023/08/19 10:46:35;;;;;;;0.90;0.88;;;;;32.50;96129.00;;;;5135023;27;20219;-60
2023/08/19 10:49:04;;;;;;;1.83;1.38;;;;;32.60;96133.00;;;;5134571;27;20208;-60
2023/08/19 10:51:53;;;;;;;0.90;0.90;;;;;32.50;96124.00;;;;5134882;27;20201;-60
2023/08/19 10:54:35;;;;;;;1.63;1.52;;;;;32.40;96133.00;;;;5134792;27;20188;-60
2023/08/19 10:57:10;;;;;;;1.67;1.58;;;;;32.80;96130.00;;;;5134502;27;20675;-60
2023/08/19 10:59:41;;;;;;;1.50;1.40;;;;;33.20;96134.00;;;;5134430;27;20169;-60
2023/08/19 11:02:09;;;;;;;1.05;1.05;;;;;33.20;96136.00;;;;5135022;27;20177;-60
2023/08/19 11:04:42;;;;;;;6.63;1.60;;;;;33.70;96134.00;;;;5134292;27;20201;-60
2023/08/19 11:07:09;;;;;;;1.65;1.55;;;;;34.00;96126.00;;;;5134773;27;20231;-60
2023/08/19 11:09:37;;;;;;;1.15;1.15;;;;;34.30;96122.00;;;;5135098;27;20213;-61
2023/08/19 11:12:06;;;;;;;1.27;1.20;;;;;34.80;96128.00;;;;5134713;27;20205;-61
2023/08/19 11:14:34;;;;;;;2.65;1.30;;;;;35.20;96117.00;;;;5134512;27;20189;-61
2023/08/19 11:17:03;;;;;;;1.10;1.10;;;;;35.60;96124.00;;;;5135013;27;20212;-61
2023/08/19 11:19:32;;;;;;;1.13;1.13;;;;;35.50;96126.00;;;;5134365;27;20269;-61
2023/08/19 11:21:59;;;;;;;1.17;1.17;;;;;35.70;96109.00;;;;5134745;27;20193;-61
2023/08/19 11:24:31;;;;;;;1.63;1.50;;;;;35.90;96120.00;;;;5134471;27;20528;-61
2023/08/19 11:26:58;;;;;;;1.70;1.60;;;;;36.20;96113.00;;;;5134367;27;20778;-61
2023/08/19 11:29:26;;;;;;;2.00;1.80;;;;;36.20;96112.00;;;;5134964;27;20220;-61
2023/08/19 11:31:53;;;;;;;3.47;1.48;;;;;36.30;96120.00;;;;5132961;28;20645;-61
2023/08/19 11:34:22;;;;;;;1.13;1.13;;;;;36.20;96117.00;;;;5134364;28;20186;-61
2023/08/19 11:36:49;;;;;;;1.48;1.38;;;;;36.40;96125.00;;;;5134576;28;20209;-61
2023/08/19 11:39:19;;;;;;;3.00;1.48;;;;;36.20;96127.00;;;;5134350;28;20189;-61
2023/08/19 11:41:47;;;;;;;1.35;1.25;;;;;36.20;96124.00;;;;5135060;27;20199;-61
2023/08/19 11:44:15;;;;;;;1.15;1.15;;;;;35.80;96128.00;;;;5138356;27;20216;-61
2023/08/19 11:46:42;;;;;;;1.40;1.35;;;;;35.50;96131.00;;;;5138325;27;20206;-61
2023/08/19 11:49:11;;;;;;;1.73;1.63;;;;;35.40;96136.00;;;;5138162;27;20217;-61
2023/08/19 11:51:41;;;;;;;1.45;1.35;;;;;35.40;96127.00;;;;5138602;27;20220;-60
2023/08/19 11:54:10;;;;;;;1.63;1.52;;;;;35.40;96145.00;;;;5138445;27;20189;-60
2023/08/19 11:56:50;;;;;;;0.75;0.75;;;;;35.30;96150.00;;;;5138027;27;20598;-62
2023/08/19 11:59:18;;;;;;;1.73;1.63;;;;;35.40;96146.00;;;;5138025;27;20663;-61
2023/08/19 12:01:47;;;;;;;1.45;1.35;;;;;34.90;96164.00;;;;5137988;27;20573;-61
2023/08/19 12:04:16;;;;;;;2.47;1.25;;;;;34.40;96145.00;;;;5137781;27;20198;-61
2023/08/19 12:06:46;;;;;;;0.93;0.93;;;;;35.20;96148.00;;;;5137926;27;20209;-61
2023/08/19 12:09:13;;;;;;;3.10;1.42;;;;;35.50;96153.00;;;;5138027;27;20240;-60
2023/08/19 12:11:42;;;;;;;1.65;1.55;;;;;36.00;96151.00;;;;5137981;27;20190;-60
2023/08/19 12:14:09;;;;;;;1.45;1.33;;;;;36.50;96158.00;;;;5137787;27;20189;-60
2023/08/19 12:16:37;;;;;;;1.10;1.10;;;;;35.10;96170.00;;;;5137665;27;20211;-61
2023/08/19 12:19:04;;;;;;;1.17;1.15;;;;;35.00;96167.00;;;;5138303;27;20186;-61
2023/08/19 12:21:32;;;;;;;1.42;1.33;;;;;35.50;96175.00;;;;5137537;27;20194;-61
2023/08/19 12:24:01;;;;;;;1.55;1.45;;;;;35.70;96174.00;;;;5137708;27;20532;-61
2023/08/19 12:26:28;;;;;;;1.55;1.45;;;;;35.50;96183.00;;;;5137419;27;20216;-61